Haddon, Indiana
Current Conditions -  °F | °C
As of 7:35 AM on Friday 24 Oct 2014 (Local Time) from KRSV Reporting Station
Drizzle Drizzle  
Wind Chill: 53°   Ceiling: 2800
Heat Index: 53°   Visibility: 10mi
Dew Point: 49°   Wind: 0mph
Humidity: 88%   Direction: NA
Pressure: 30.12"   Gusts: NA
Location:  38.9636°N, 87.3568°W
Report Text: KRSV 241135Z AUTO 00000KT 10SM -DZ OVC028 12/10 A3012 RMK AO2 T01150095
Loading
Personal Weather Stations






























Interactive Weather Map
Tropical Storm Tracking
New forecast layout! Learn more

10-Day Weather Forecast

Advertisements
Track Severe Weather on mobile